createdAt,value
2023-02-11T00:01:14.120Z,-4.66
2023-02-11T00:03:41.983Z,-4.64
2023-02-11T00:06:11.195Z,-4.58
2023-02-11T00:08:39.392Z,-4.52
2023-02-11T00:11:07.875Z,-4.52
2023-02-11T00:13:35.420Z,-4.52
2023-02-11T00:16:13.711Z,-4.58
2023-02-11T00:18:41.599Z,-4.59
2023-02-11T00:21:11.944Z,-4.56
2023-02-11T00:23:39.523Z,-4.61
2023-02-11T00:26:15.879Z,-4.55
2023-02-11T00:28:44.077Z,-4.58
2023-02-11T00:31:13.226Z,-4.62
2023-02-11T00:33:41.070Z,-4.70
2023-02-11T00:36:14.345Z,-4.73
2023-02-11T00:38:46.544Z,-4.70
2023-02-11T00:41:15.070Z,-4.79
2023-02-11T00:43:43.064Z,-4.81
2023-02-11T00:46:10.853Z,-4.81
2023-02-11T00:48:38.601Z,-4.76
2023-02-11T00:51:06.879Z,-4.77
2023-02-11T00:53:34.794Z,-4.75
2023-02-11T00:56:02.449Z,-4.72
2023-02-11T00:58:30.378Z,-4.72
2023-02-11T01:00:58.341Z,-4.78
2023-02-11T01:03:26.056Z,-4.67
2023-02-11T01:05:54.237Z,-4.67
2023-02-11T01:08:21.778Z,-4.73
2023-02-11T01:11:03.296Z,-4.75
2023-02-11T01:13:32.263Z,-4.79
2023-02-11T01:16:00.213Z,-4.80
2023-02-11T01:18:27.807Z,-4.81
2023-02-11T01:20:55.585Z,-4.92
2023-02-11T01:23:24.036Z,-4.94
2023-02-11T01:25:52.652Z,-5.04
2023-02-11T01:28:26.352Z,-4.98
2023-02-11T01:30:54.608Z,-5.03
2023-02-11T01:33:23.040Z,-5.00
2023-02-11T01:35:50.876Z,-4.93
2023-02-11T01:38:26.202Z,-4.94
2023-02-11T01:40:57.228Z,-5.00
2023-02-11T01:43:26.170Z,-5.02
2023-02-11T01:46:12.455Z,-5.04
2023-02-11T01:48:42.940Z,-5.05
2023-02-11T01:51:17.454Z,-4.94
2023-02-11T01:54:05.157Z,-4.86
2023-02-11T01:56:53.113Z,-4.82
2023-02-11T01:59:25.960Z,-4.76
2023-02-11T02:01:57.789Z,-4.72
2023-02-11T02:04:31.541Z,-4.73
2023-02-11T02:07:10.025Z,-4.80
2023-02-11T02:09:46.634Z,-4.86
2023-02-11T02:12:14.237Z,-4.80
2023-02-11T02:14:43.204Z,-4.85
2023-02-11T02:17:22.235Z,-4.82
2023-02-11T02:20:04.302Z,-4.89
2023-02-11T02:22:53.674Z,-4.86
2023-02-11T02:25:27.267Z,-4.86
2023-02-11T02:28:07.362Z,-4.99
2023-02-11T02:30:53.422Z,-4.97
2023-02-11T02:33:58.942Z,-4.96
2023-02-11T02:36:38.336Z,-5.00
2023-02-11T02:39:18.551Z,-5.03
2023-02-11T02:41:46.448Z,-5.18
2023-02-11T02:44:14.255Z,-5.11
2023-02-11T02:46:41.891Z,-5.07
2023-02-11T02:49:14.266Z,-5.09
2023-02-11T02:51:54.291Z,-5.07
2023-02-11T02:54:43.810Z,-5.08
2023-02-11T02:57:30.528Z,-5.10
2023-02-11T02:59:58.100Z,-5.17
2023-02-11T03:02:36.229Z,-5.08
2023-02-11T03:05:28.566Z,-5.15
2023-02-11T03:08:10.206Z,-5.26
2023-02-11T03:10:42.014Z,-5.23
2023-02-11T03:13:10.213Z,-5.22
2023-02-11T03:15:46.239Z,-5.22
2023-02-11T03:18:16.401Z,-5.26
2023-02-11T03:20:45.944Z,-5.25
2023-02-11T03:23:30.119Z,-5.33
2023-02-11T03:26:09.328Z,-5.36
2023-02-11T03:29:09.247Z,-5.37
2023-02-11T03:31:49.193Z,-5.37
2023-02-11T03:34:27.418Z,-5.37
2023-02-11T03:36:58.421Z,-5.41
2023-02-11T03:39:31.731Z,-5.42
2023-02-11T03:41:59.922Z,-5.45
2023-02-11T03:44:33.148Z,-5.46
2023-02-11T03:47:01.292Z,-5.50
2023-02-11T03:49:30.152Z,-5.47
2023-02-11T03:51:58.238Z,-5.45
2023-02-11T03:54:29.768Z,-5.47
2023-02-11T03:56:59.748Z,-5.52
2023-02-11T03:59:27.394Z,-5.50
2023-02-11T04:01:55.070Z,-5.44
2023-02-11T04:04:22.921Z,-5.42
2023-02-11T04:06:50.419Z,-5.37
2023-02-11T04:09:18.019Z,-5.38
2023-02-11T04:11:46.088Z,-5.34
2023-02-11T04:14:13.576Z,-5.38
2023-02-11T04:16:41.111Z,-5.37
2023-02-11T04:19:09.009Z,-5.52
2023-02-11T04:21:36.504Z,-5.61
2023-02-11T04:24:04.196Z,-5.65
2023-02-11T04:26:32.048Z,-5.69
2023-02-11T04:28:59.777Z,-5.75
2023-02-11T04:31:28.476Z,-5.79
2023-02-11T04:33:57.031Z,-5.72
2023-02-11T04:36:24.516Z,-5.61
2023-02-11T04:38:51.993Z,-5.54
2023-02-11T04:41:19.830Z,-5.49
2023-02-11T04:43:47.440Z,-5.47
2023-02-11T04:46:15.136Z,-5.44
2023-02-11T04:48:43.054Z,-5.40
2023-02-11T04:51:10.471Z,-5.38
2023-02-11T04:53:38.050Z,-5.39
2023-02-11T04:56:05.966Z,-5.45
2023-02-11T04:58:33.555Z,-5.57
2023-02-11T05:01:11.298Z,-5.67
2023-02-11T05:03:39.241Z,-5.67
2023-02-11T05:06:07.265Z,-5.70
2023-02-11T05:08:34.826Z,-5.69
2023-02-11T05:11:02.700Z,-5.72
2023-02-11T05:13:30.473Z,-5.75
2023-02-11T05:15:58.037Z,-5.80
2023-02-11T05:18:26.132Z,-5.77
2023-02-11T05:20:54.575Z,-5.80
2023-02-11T05:23:22.060Z,-5.86
2023-02-11T05:25:50.210Z,-5.82
2023-02-11T05:28:18.368Z,-5.87
2023-02-11T05:30:45.907Z,-5.94
2023-02-11T05:33:14.144Z,-5.95
2023-02-11T05:35:41.666Z,-5.93
2023-02-11T05:38:09.239Z,-6.03
2023-02-11T05:40:37.149Z,-6.03
2023-02-11T05:43:04.595Z,-6.05
2023-02-11T05:45:32.375Z,-6.03
2023-02-11T05:48:00.582Z,-6.10
2023-02-11T05:50:28.113Z,-6.04
2023-02-11T05:52:55.625Z,-6.12
2023-02-11T05:55:23.499Z,-6.10
2023-02-11T05:57:51.070Z,-6.10
2023-02-11T06:00:19.068Z,-6.04
2023-02-11T06:02:46.897Z,-6.09
2023-02-11T06:05:14.523Z,-6.07
2023-02-11T06:07:42.202Z,-6.10
2023-02-11T06:10:11.425Z,-6.06
2023-02-11T06:12:39.349Z,-6.12
2023-02-11T06:15:07.587Z,-6.04
2023-02-11T06:17:36.694Z,-6.07
2023-02-11T06:20:06.369Z,-5.99
2023-02-11T06:22:35.050Z,-5.93
2023-02-11T06:25:03.238Z,-5.92
2023-02-11T06:27:30.959Z,-5.85
2023-02-11T06:29:58.937Z,-5.80
2023-02-11T06:32:45.462Z,-5.81
2023-02-11T06:35:14.820Z,-5.84
2023-02-11T06:37:42.982Z,-5.72
2023-02-11T06:40:11.413Z,-5.63
2023-02-11T06:42:39.414Z,-5.57
2023-02-11T06:45:13.211Z,-5.50
2023-02-11T06:47:41.049Z,-5.45
2023-02-11T06:50:11.758Z,-5.36
2023-02-11T06:52:39.403Z,-5.29
2023-02-11T06:55:07.038Z,-5.21
2023-02-11T06:57:35.002Z,-5.12
2023-02-11T07:00:02.781Z,-5.08
2023-02-11T07:02:31.845Z,-4.93
2023-02-11T07:04:59.658Z,-4.86
2023-02-11T07:07:27.583Z,-4.79
2023-02-11T07:09:55.156Z,-4.70
2023-02-11T07:12:23.161Z,-4.65
2023-02-11T07:14:50.841Z,-4.57
2023-02-11T07:17:18.420Z,-4.46
2023-02-11T07:19:46.267Z,-4.45
2023-02-11T07:22:14.308Z,-4.26
2023-02-11T07:24:41.915Z,-4.14
2023-02-11T07:27:09.751Z,-4.05
2023-02-11T07:29:37.718Z,-3.94
2023-02-11T07:32:06.291Z,-3.84
2023-02-11T07:34:34.609Z,-3.75
2023-02-11T07:37:02.195Z,-3.64
2023-02-11T07:39:29.815Z,-3.57
2023-02-11T07:41:58.460Z,-3.41
2023-02-11T07:44:26.755Z,-3.29
2023-02-11T07:46:54.441Z,-3.17
2023-02-11T07:49:22.371Z,-3.06
2023-02-11T07:51:51.351Z,-2.74
2023-02-11T07:54:19.540Z,-2.57
2023-02-11T07:57:19.662Z,-1.72
2023-02-11T07:59:47.999Z,-1.72
2023-02-11T08:02:15.571Z,-2.34
2023-02-11T08:04:46.137Z,-2.10
2023-02-11T08:07:19.870Z,-2.11
2023-02-11T08:09:50.288Z,-1.92
2023-02-11T08:12:17.881Z,-1.73
2023-02-11T08:14:45.461Z,-1.54
2023-02-11T08:17:13.333Z,-1.33
2023-02-11T08:19:41.202Z,-1.17
2023-02-11T08:22:08.829Z,-1.14
2023-02-11T08:24:36.693Z,-1.02
2023-02-11T08:27:04.384Z,-0.96
2023-02-11T08:29:31.950Z,-0.84
2023-02-11T08:31:59.737Z,-0.61
2023-02-11T08:34:27.336Z,-0.63
2023-02-11T08:36:54.968Z,-0.41
2023-02-11T08:39:23.188Z,-0.12
2023-02-11T08:41:53.190Z,-0.14
2023-02-11T08:44:21.551Z,0.06
2023-02-11T08:46:50.216Z,0.18
2023-02-11T08:49:17.914Z,0.51
2023-02-11T08:51:46.231Z,0.45
2023-02-11T08:54:15.077Z,0.81
2023-02-11T08:56:42.689Z,0.77
2023-02-11T08:59:14.252Z,1.23
2023-02-11T09:01:42.192Z,1.18
2023-02-11T09:04:10.640Z,1.37
2023-02-11T09:06:38.247Z,1.44
2023-02-11T09:09:06.088Z,1.49
2023-02-11T09:11:35.535Z,1.69
2023-02-11T09:14:04.270Z,1.69
2023-02-11T09:16:35.892Z,1.91
2023-02-11T09:19:05.394Z,1.96
2023-02-11T09:21:33.549Z,2.23
2023-02-11T09:24:01.159Z,2.21
2023-02-11T09:26:31.222Z,2.38
2023-02-11T09:29:00.275Z,2.49
2023-02-11T09:31:29.894Z,2.78
2023-02-11T09:33:59.828Z,2.87
2023-02-11T09:36:30.183Z,3.06
2023-02-11T09:38:59.499Z,3.12
2023-02-11T09:41:39.688Z,3.29
2023-02-11T09:44:09.870Z,3.66
2023-02-11T09:46:42.242Z,3.90
2023-02-11T09:49:19.720Z,3.92
2023-02-11T09:52:08.454Z,3.92
2023-02-11T09:54:54.601Z,4.05
2023-02-11T09:57:28.559Z,4.09
2023-02-11T09:59:57.832Z,4.12
2023-02-11T10:02:38.074Z,4.12
2023-02-11T10:05:25.867Z,4.16
2023-02-11T10:08:16.755Z,4.30
2023-02-11T10:10:52.828Z,4.19
2023-02-11T10:13:54.655Z,4.21
2023-02-11T10:16:32.426Z,4.24
2023-02-11T10:19:14.145Z,4.33
2023-02-11T10:21:54.999Z,4.40
2023-02-11T10:24:22.592Z,4.43
2023-02-11T10:26:52.041Z,4.39
2023-02-11T10:29:39.023Z,4.45
2023-02-11T10:32:15.498Z,4.44
2023-02-11T10:34:43.075Z,4.63
2023-02-11T10:37:13.933Z,4.56
2023-02-11T10:39:41.594Z,4.69
2023-02-11T10:42:11.705Z,4.75
2023-02-11T10:44:58.942Z,4.79
2023-02-11T10:47:32.830Z,4.87
2023-02-11T10:50:03.753Z,4.91
2023-02-11T10:52:31.725Z,4.93
2023-02-11T10:55:00.574Z,4.91
2023-02-11T10:57:39.887Z,5.13
2023-02-11T11:00:36.254Z,5.11
2023-02-11T11:03:07.799Z,4.96
2023-02-11T11:05:47.635Z,4.76
2023-02-11T11:08:15.887Z,4.83
2023-02-11T11:10:47.003Z,4.81
2023-02-11T11:13:24.194Z,4.70
2023-02-11T11:16:08.534Z,4.62
2023-02-11T11:18:36.427Z,4.72
2023-02-11T11:21:14.368Z,4.69
2023-02-11T11:24:06.291Z,4.66
2023-02-11T11:26:45.711Z,4.68
2023-02-11T11:29:23.128Z,4.84
2023-02-11T11:32:18.285Z,5.18
2023-02-11T11:34:52.160Z,5.52
2023-02-11T11:37:29.214Z,5.54
2023-02-11T11:40:00.525Z,5.53
2023-02-11T11:42:31.263Z,5.90
2023-02-11T11:45:05.008Z,6.07
2023-02-11T11:47:45.507Z,6.16
2023-02-11T11:50:28.207Z,6.12
2023-02-11T11:53:07.774Z,6.32
2023-02-11T11:55:42.439Z,6.16
2023-02-11T11:58:18.445Z,5.94
2023-02-11T12:01:04.863Z,6.03
2023-02-11T12:03:32.605Z,6.03
2023-02-11T12:06:09.326Z,5.80
2023-02-11T12:09:01.820Z,5.95
2023-02-11T12:11:39.319Z,5.89
2023-02-11T12:14:44.221Z,5.77
2023-02-11T12:17:11.655Z,5.78
2023-02-11T12:20:05.567Z,5.80
2023-02-11T12:23:02.548Z,5.84
2023-02-11T12:25:39.101Z,5.66
2023-02-11T12:28:15.485Z,5.60
2023-02-11T12:31:07.406Z,5.69
2023-02-11T12:34:12.453Z,5.88
2023-02-11T12:36:45.871Z,5.93
2023-02-11T12:39:45.529Z,5.69
2023-02-11T12:42:51.166Z,5.69
2023-02-11T12:45:43.919Z,5.84
2023-02-11T12:48:37.310Z,5.81
2023-02-11T12:51:39.653Z,6.00
2023-02-11T12:54:10.995Z,6.14
2023-02-11T12:56:59.226Z,6.16
2023-02-11T12:59:33.509Z,6.21
2023-02-11T13:02:04.561Z,6.17
2023-02-11T13:04:39.408Z,6.07
2023-02-11T13:07:14.873Z,5.84
2023-02-11T13:09:46.729Z,5.88
2023-02-11T13:12:33.533Z,5.88
2023-02-11T13:15:07.153Z,6.03
2023-02-11T13:17:47.164Z,6.00
2023-02-11T13:20:20.764Z,6.08
2023-02-11T13:23:14.223Z,6.03
2023-02-11T13:25:53.438Z,6.04
2023-02-11T13:28:50.268Z,5.99
2023-02-11T13:31:20.443Z,5.94
2023-02-11T13:33:49.925Z,5.92
2023-02-11T13:36:23.720Z,6.03
2023-02-11T13:38:57.869Z,6.15
2023-02-11T13:41:30.364Z,6.07
2023-02-11T13:44:25.499Z,5.99
2023-02-11T13:47:02.405Z,5.82
2023-02-11T13:49:32.702Z,5.84
2023-02-11T13:52:02.072Z,5.81
2023-02-11T13:54:38.558Z,5.63
2023-02-11T13:57:23.696Z,5.66
2023-02-11T13:59:54.119Z,5.49
2023-02-11T14:02:40.336Z,5.45
2023-02-11T14:05:27.123Z,5.50
2023-02-11T14:08:28.609Z,5.60
2023-02-11T14:10:59.293Z,5.56
2023-02-11T14:13:34.754Z,5.57
2023-02-11T14:16:05.764Z,5.54
2023-02-11T14:18:49.623Z,5.60
2023-02-11T14:21:29.652Z,5.55
2023-02-11T14:24:04.938Z,5.59
2023-02-11T14:26:52.324Z,5.49
2023-02-11T14:29:41.609Z,5.62
2023-02-11T14:32:21.757Z,5.64
2023-02-11T14:35:08.401Z,5.63
2023-02-11T14:37:36.185Z,5.61
2023-02-11T14:40:11.297Z,5.50
2023-02-11T14:42:39.806Z,5.39
2023-02-11T14:45:14.546Z,5.31
2023-02-11T14:48:08.475Z,5.30
2023-02-11T14:50:50.005Z,5.32
2023-02-11T14:53:28.520Z,5.32
2023-02-11T14:55:56.318Z,5.27
2023-02-11T14:58:26.138Z,5.24
2023-02-11T15:00:57.339Z,5.20
2023-02-11T15:03:35.972Z,5.20
2023-02-11T15:06:19.114Z,5.12
2023-02-11T15:08:58.409Z,5.09
2023-02-11T15:11:27.508Z,5.00
2023-02-11T15:13:56.482Z,4.91
2023-02-11T15:16:26.088Z,4.83
2023-02-11T15:19:02.229Z,4.72
2023-02-11T15:21:32.829Z,4.69
2023-02-11T15:24:18.461Z,4.62
2023-02-11T15:26:56.226Z,4.54
2023-02-11T15:29:28.731Z,4.47
2023-02-11T15:32:22.653Z,4.37
2023-02-11T15:34:52.420Z,4.31
2023-02-11T15:37:22.204Z,4.20
2023-02-11T15:39:50.680Z,4.10
2023-02-11T15:42:40.771Z,4.05
2023-02-11T15:45:28.713Z,3.98
2023-02-11T15:48:00.279Z,3.89
2023-02-11T15:50:30.679Z,3.80
2023-02-11T15:53:01.268Z,3.71
2023-02-11T15:55:29.335Z,3.59
2023-02-11T15:58:00.692Z,3.45
2023-02-11T16:00:36.264Z,3.43
2023-02-11T16:03:04.811Z,3.35
2023-02-11T16:05:37.404Z,3.30
2023-02-11T16:08:21.272Z,3.21
2023-02-11T16:11:03.389Z,3.14
2023-02-11T16:13:33.697Z,3.10
2023-02-11T16:16:04.700Z,3.06
2023-02-11T16:18:39.230Z,3.01
2023-02-11T16:21:18.154Z,2.97
2023-02-11T16:23:51.829Z,2.97
2023-02-11T16:26:39.267Z,2.91
2023-02-11T16:29:13.728Z,2.93
2023-02-11T16:31:43.798Z,2.88
2023-02-11T16:34:17.153Z,2.85
2023-02-11T16:36:46.067Z,2.78
2023-02-11T16:39:14.993Z,2.82
2023-02-11T16:41:43.298Z,2.77
2023-02-11T16:44:11.120Z,2.70
2023-02-11T16:46:39.381Z,2.61
2023-02-11T16:49:11.246Z,2.55
2023-02-11T16:51:40.662Z,2.50
2023-02-11T16:54:18.194Z,2.45
2023-02-11T16:56:46.482Z,2.42
2023-02-11T16:59:14.603Z,2.37
2023-02-11T17:01:43.171Z,2.31
2023-02-11T17:04:17.775Z,2.22
2023-02-11T17:06:45.892Z,2.20
2023-02-11T17:09:20.781Z,2.12
2023-02-11T17:11:49.450Z,2.08
2023-02-11T17:14:18.674Z,1.98
2023-02-11T17:16:47.756Z,2.01
2023-02-11T17:19:19.688Z,1.98
2023-02-11T17:21:50.751Z,1.92
2023-02-11T17:24:20.293Z,1.83
2023-02-11T17:26:48.816Z,1.84
2023-02-11T17:29:19.462Z,1.73
2023-02-11T17:31:47.337Z,1.76
2023-02-11T17:34:16.679Z,1.69
2023-02-11T17:36:44.882Z,1.58
2023-02-11T17:39:12.942Z,1.62
2023-02-11T17:41:41.602Z,1.51
2023-02-11T17:44:12.321Z,1.53
2023-02-11T17:46:40.317Z,1.53
2023-02-11T17:49:08.505Z,1.48
2023-02-11T17:51:38.286Z,1.44
2023-02-11T17:54:14.357Z,1.41
2023-02-11T17:56:42.868Z,1.38
2023-02-11T17:59:12.176Z,1.33
2023-02-11T18:01:41.192Z,1.33
2023-02-11T18:04:13.766Z,1.33
2023-02-11T18:06:42.697Z,1.27
2023-02-11T18:09:11.334Z,1.31
2023-02-11T18:11:40.469Z,1.39
2023-02-11T18:14:09.103Z,1.43
2023-02-11T18:16:39.465Z,1.49
2023-02-11T18:19:08.034Z,1.56
2023-02-11T18:21:36.338Z,1.58
2023-02-11T18:24:07.036Z,1.68
2023-02-11T18:26:35.361Z,1.74
2023-02-11T18:29:03.928Z,1.82
2023-02-11T18:31:32.245Z,1.87
2023-02-11T18:34:00.150Z,1.93
2023-02-11T18:36:27.707Z,1.90
2023-02-11T18:38:58.233Z,1.96
2023-02-11T18:41:25.965Z,1.96
2023-02-11T18:43:54.483Z,2.00
2023-02-11T18:46:22.707Z,1.97
2023-02-11T18:48:55.565Z,2.00
2023-02-11T18:51:24.330Z,2.04
2023-02-11T18:53:52.489Z,2.02
2023-02-11T18:56:22.788Z,2.05
2023-02-11T18:58:51.465Z,2.09
2023-02-11T19:01:24.410Z,2.08
2023-02-11T19:03:54.599Z,2.13
2023-02-11T19:06:25.665Z,2.21
2023-02-11T19:08:59.807Z,2.20
2023-02-11T19:11:47.725Z,2.22
2023-02-11T19:14:20.651Z,2.22
2023-02-11T19:16:50.625Z,2.21
2023-02-11T19:19:19.257Z,2.26
2023-02-11T19:21:47.654Z,2.29
2023-02-11T19:24:18.929Z,2.29
2023-02-11T19:26:48.228Z,2.29
2023-02-11T19:29:17.306Z,2.26
2023-02-11T19:31:45.421Z,2.23
2023-02-11T19:34:15.343Z,2.20
2023-02-11T19:36:43.608Z,2.16
2023-02-11T19:39:13.362Z,2.19
2023-02-11T19:41:41.685Z,2.20
2023-02-11T19:44:09.664Z,2.20
2023-02-11T19:46:40.793Z,2.22
2023-02-11T19:49:10.128Z,2.18
2023-02-11T19:51:39.508Z,2.13
2023-02-11T19:54:07.686Z,2.14
2023-02-11T19:56:35.653Z,2.09
2023-02-11T19:59:03.893Z,2.07
2023-02-11T20:01:32.972Z,2.06
2023-02-11T20:04:01.564Z,2.07
2023-02-11T20:06:31.517Z,2.04
2023-02-11T20:09:01.772Z,2.05
2023-02-11T20:11:31.396Z,2.04
2023-02-11T20:13:59.434Z,2.00
2023-02-11T20:16:46.309Z,2.05
2023-02-11T20:19:18.393Z,2.02
2023-02-11T20:21:48.353Z,2.05
2023-02-11T20:24:17.682Z,2.03
2023-02-11T20:26:48.401Z,2.04
2023-02-11T20:29:18.009Z,2.03
2023-02-11T20:31:46.230Z,2.01
2023-02-11T20:34:14.180Z,1.94
2023-02-11T20:36:42.347Z,1.99
2023-02-11T20:39:11.556Z,1.97
2023-02-11T20:41:40.120Z,1.96
2023-02-11T20:44:09.951Z,1.97
2023-02-11T20:46:40.382Z,1.94
2023-02-11T20:49:12.104Z,1.95
2023-02-11T20:51:40.410Z,1.94
2023-02-11T20:54:13.318Z,1.95
2023-02-11T20:56:41.688Z,1.97
2023-02-11T20:59:10.573Z,2.00
2023-02-11T21:01:42.338Z,2.00
2023-02-11T21:04:13.104Z,2.01
2023-02-11T21:06:47.331Z,1.97
2023-02-11T21:09:17.419Z,2.05
2023-02-11T21:11:45.861Z,2.07
2023-02-11T21:14:13.524Z,2.09
2023-02-11T21:16:42.309Z,2.10
2023-02-11T21:19:09.998Z,2.11
2023-02-11T21:21:38.824Z,2.12
2023-02-11T21:24:07.609Z,2.19
2023-02-11T21:26:35.889Z,2.19
2023-02-11T21:29:18.118Z,2.24
2023-02-11T21:31:57.448Z,2.27
2023-02-11T21:34:24.984Z,2.31
2023-02-11T21:36:53.118Z,2.30
2023-02-11T21:39:21.239Z,2.48
2023-02-11T21:41:49.126Z,2.59
2023-02-11T21:44:17.877Z,2.64
2023-02-11T21:46:45.743Z,2.70
2023-02-11T21:49:13.410Z,2.94
2023-02-11T21:51:42.499Z,2.88
2023-02-11T21:54:10.901Z,2.89
2023-02-11T21:56:38.401Z,2.93
2023-02-11T21:59:06.482Z,3.08
2023-02-11T22:01:35.421Z,2.98
2023-02-11T22:04:03.513Z,3.06
2023-02-11T22:06:33.605Z,3.07
2023-02-11T22:09:06.675Z,3.12
2023-02-11T22:11:34.821Z,3.03
2023-02-11T22:14:02.641Z,3.08
2023-02-11T22:16:30.529Z,3.20
2023-02-11T22:18:58.992Z,3.20
2023-02-11T22:21:26.927Z,3.24
2023-02-11T22:23:55.401Z,3.26
2023-02-11T22:26:41.364Z,3.32
2023-02-11T22:29:09.328Z,3.37
2023-02-11T22:31:37.418Z,3.32
2023-02-11T22:34:06.156Z,3.31
2023-02-11T22:36:39.754Z,3.32
2023-02-11T22:39:11.423Z,3.27
2023-02-11T22:41:41.054Z,3.24
2023-02-11T22:44:09.472Z,3.36
2023-02-11T22:46:37.356Z,3.54
2023-02-11T22:49:05.484Z,3.47
2023-02-11T22:51:33.752Z,3.46
2023-02-11T22:54:03.679Z,3.37
2023-02-11T22:56:32.273Z,3.35
2023-02-11T22:59:02.631Z,3.38
2023-02-11T23:01:30.955Z,3.34
2023-02-11T23:04:03.673Z,3.42
2023-02-11T23:06:31.766Z,3.36
2023-02-11T23:08:59.448Z,3.32
2023-02-11T23:11:29.248Z,3.26
2023-02-11T23:13:57.234Z,3.26
2023-02-11T23:16:27.500Z,3.31
2023-02-11T23:18:55.612Z,3.27
2023-02-11T23:21:25.381Z,3.24
2023-02-11T23:24:00.857Z,3.14
2023-02-11T23:26:29.235Z,3.13
2023-02-11T23:28:58.306Z,3.13
2023-02-11T23:31:28.885Z,3.11
2023-02-11T23:33:57.608Z,3.09
2023-02-11T23:36:25.238Z,3.08
2023-02-11T23:38:52.906Z,3.11
2023-02-11T23:41:21.269Z,3.07
2023-02-11T23:43:50.829Z,3.16
2023-02-11T23:46:19.195Z,3.20
2023-02-11T23:48:47.028Z,3.16
2023-02-11T23:51:14.608Z,3.16
2023-02-11T23:53:42.149Z,3.16
2023-02-11T23:56:14.307Z,3.09
2023-02-11T23:58:42.079Z,3.16
